createdAt,value
2022-07-27T00:01:51.619Z,6.77
2022-07-27T00:03:56.829Z,8.00
2022-07-27T00:06:00.375Z,6.77
2022-07-27T00:08:03.864Z,6.90
2022-07-27T00:10:08.036Z,5.67
2022-07-27T00:12:11.761Z,6.00
2022-07-27T00:14:17.759Z,6.23
2022-07-27T00:16:21.356Z,6.87
2022-07-27T00:18:25.441Z,7.20
2022-07-27T00:20:30.585Z,6.47
2022-07-27T00:22:34.433Z,7.10
2022-07-27T00:24:37.980Z,6.80
2022-07-27T00:26:41.496Z,6.50
2022-07-27T00:28:45.016Z,7.00
2022-07-27T00:30:48.629Z,7.40
2022-07-27T00:32:52.215Z,6.60
2022-07-27T00:34:56.036Z,7.00
2022-07-27T00:37:01.017Z,6.07
2022-07-27T00:39:04.667Z,6.60
2022-07-27T00:41:08.231Z,7.33
2022-07-27T00:43:11.775Z,6.83
2022-07-27T00:45:15.777Z,7.07
2022-07-27T00:47:19.293Z,6.73
2022-07-27T00:49:22.906Z,6.57
2022-07-27T00:51:27.008Z,7.40
2022-07-27T00:53:32.368Z,8.03
2022-07-27T00:55:36.545Z,7.73
2022-07-27T00:57:58.207Z,8.50
2022-07-27T01:00:03.417Z,7.90
2022-07-27T01:02:11.056Z,7.50
2022-07-27T01:04:15.646Z,6.97
2022-07-27T01:06:26.889Z,6.87
2022-07-27T01:08:32.324Z,7.07
2022-07-27T01:10:36.488Z,7.33
2022-07-27T01:12:40.031Z,7.20
2022-07-27T01:14:43.592Z,7.43
2022-07-27T01:16:47.361Z,6.97
2022-07-27T01:18:51.323Z,6.60
2022-07-27T01:20:54.854Z,6.57
2022-07-27T01:22:59.797Z,7.23
2022-07-27T01:25:03.314Z,6.40
2022-07-27T01:27:07.465Z,7.00
2022-07-27T01:29:11.271Z,7.63
2022-07-27T01:31:15.124Z,6.80
2022-07-27T01:33:18.684Z,7.53
2022-07-27T01:35:22.221Z,7.23
2022-07-27T01:37:26.201Z,6.20
2022-07-27T01:39:31.123Z,7.83
2022-07-27T01:41:34.610Z,6.53
2022-07-27T01:43:38.280Z,6.67
2022-07-27T01:45:41.790Z,6.60
2022-07-27T01:47:45.325Z,6.30
2022-07-27T01:49:48.888Z,6.57
2022-07-27T01:51:52.431Z,6.40
2022-07-27T01:53:56.257Z,5.90
2022-07-27T01:56:01.191Z,6.20
2022-07-27T01:58:07.311Z,6.63
2022-07-27T02:00:12.853Z,6.00
2022-07-27T02:02:16.571Z,6.37
2022-07-27T02:04:20.114Z,6.30
2022-07-27T02:06:24.328Z,7.07
2022-07-27T02:08:28.136Z,5.53
2022-07-27T02:10:32.061Z,5.93
2022-07-27T02:12:36.248Z,6.10
2022-07-27T02:14:39.801Z,6.37
2022-07-27T02:16:43.487Z,6.30
2022-07-27T02:18:48.633Z,6.73
2022-07-27T02:20:52.512Z,6.23
2022-07-27T02:22:55.993Z,6.67
2022-07-27T02:24:59.739Z,6.40
2022-07-27T02:27:03.296Z,5.97
2022-07-27T02:29:08.369Z,6.13
2022-07-27T02:31:12.170Z,5.63
2022-07-27T02:33:17.253Z,5.27
2022-07-27T02:35:20.846Z,5.10
2022-07-27T02:37:24.988Z,5.30
2022-07-27T02:39:28.509Z,5.87
2022-07-27T02:41:32.019Z,5.13
2022-07-27T02:43:35.708Z,5.47
2022-07-27T02:45:40.651Z,4.70
2022-07-27T02:47:44.472Z,5.07
2022-07-27T02:49:48.110Z,5.67
2022-07-27T02:51:51.984Z,4.90
2022-07-27T02:53:55.528Z,4.80
2022-07-27T02:55:59.344Z,4.90
2022-07-27T02:58:02.848Z,4.23
2022-07-27T03:00:07.107Z,4.10
2022-07-27T03:02:12.535Z,4.77
2022-07-27T03:04:16.100Z,4.60
2022-07-27T03:06:19.667Z,5.70
2022-07-27T03:08:23.176Z,6.60
2022-07-27T03:10:27.002Z,5.43
2022-07-27T03:12:30.501Z,6.40
2022-07-27T03:14:34.155Z,5.17
2022-07-27T03:16:37.729Z,4.90
2022-07-27T03:18:42.634Z,4.87
2022-07-27T03:20:46.092Z,4.83
2022-07-27T03:22:49.825Z,4.87
2022-07-27T03:24:53.292Z,5.70
2022-07-27T03:26:56.764Z,5.73
2022-07-27T03:29:00.319Z,4.13
2022-07-27T03:31:03.903Z,4.80
2022-07-27T03:33:07.697Z,4.90
2022-07-27T03:35:13.052Z,4.80
2022-07-27T03:37:19.031Z,4.03
2022-07-27T03:39:22.592Z,3.87
2022-07-27T03:41:26.091Z,3.97
2022-07-27T03:43:29.929Z,3.90
2022-07-27T03:45:33.554Z,4.10
2022-07-27T03:47:37.137Z,3.67
2022-07-27T03:49:41.526Z,2.93
2022-07-27T03:51:46.397Z,3.00
2022-07-27T03:53:50.100Z,3.30
2022-07-27T03:55:53.957Z,3.10
2022-07-27T03:57:57.417Z,3.67
2022-07-27T04:00:01.242Z,3.70
2022-07-27T04:02:04.896Z,3.37
2022-07-27T04:04:08.456Z,3.60
2022-07-27T04:06:11.982Z,3.00
2022-07-27T04:08:17.872Z,3.07
2022-07-27T04:10:21.389Z,3.13
2022-07-27T04:12:26.431Z,3.53
2022-07-27T04:14:30.665Z,4.43
2022-07-27T04:16:36.244Z,3.57
2022-07-27T04:18:39.992Z,4.07
2022-07-27T04:20:43.644Z,5.27
2022-07-27T04:22:47.154Z,3.70
2022-07-27T04:24:52.166Z,3.10
2022-07-27T04:26:55.715Z,4.17
2022-07-27T04:28:59.204Z,3.13
2022-07-27T04:31:02.894Z,4.13
2022-07-27T04:33:06.428Z,3.07
2022-07-27T04:35:10.458Z,3.20
2022-07-27T04:37:14.001Z,3.80
2022-07-27T04:39:17.630Z,3.87
2022-07-27T04:41:22.620Z,4.63
2022-07-27T04:43:34.062Z,4.20
2022-07-27T04:45:37.681Z,3.80
2022-07-27T04:47:41.248Z,3.70
2022-07-27T04:49:44.733Z,3.30
2022-07-27T04:51:48.260Z,3.40
2022-07-27T04:53:58.209Z,3.60
2022-07-27T04:56:02.324Z,3.40
2022-07-27T04:58:07.506Z,2.80
2022-07-27T05:00:12.151Z,3.00
2022-07-27T05:02:15.664Z,3.77
2022-07-27T05:04:19.254Z,3.73
2022-07-27T05:06:22.850Z,3.63
2022-07-27T05:08:26.324Z,3.30
2022-07-27T05:10:30.121Z,3.13
2022-07-27T05:12:34.498Z,3.30
2022-07-27T05:14:39.515Z,3.27
2022-07-27T05:16:43.120Z,2.63
2022-07-27T05:18:46.727Z,3.70
2022-07-27T05:20:50.545Z,3.50
2022-07-27T05:22:54.265Z,3.03
2022-07-27T05:24:57.813Z,3.53
2022-07-27T05:27:01.389Z,2.83
2022-07-27T05:29:04.932Z,2.90
2022-07-27T05:31:09.814Z,2.70
2022-07-27T05:33:13.256Z,3.20
2022-07-27T05:35:16.943Z,3.07
2022-07-27T05:37:20.614Z,2.93
2022-07-27T05:39:24.135Z,2.80
2022-07-27T05:41:28.183Z,2.83
2022-07-27T05:43:31.685Z,3.00
2022-07-27T05:45:35.212Z,2.40
2022-07-27T05:47:41.137Z,3.00
2022-07-27T05:49:44.898Z,2.40
2022-07-27T05:51:48.385Z,2.50
2022-07-27T05:53:52.060Z,2.60
2022-07-27T05:55:58.164Z,3.03
2022-07-27T05:58:03.028Z,3.47
2022-07-27T06:00:07.375Z,2.70
2022-07-27T06:02:11.359Z,2.30
2022-07-27T06:04:16.287Z,3.13
2022-07-27T06:06:37.315Z,2.47
2022-07-27T06:08:40.879Z,2.60
2022-07-27T06:10:44.447Z,3.00
2022-07-27T06:12:48.353Z,2.30
2022-07-27T06:14:51.884Z,2.90
2022-07-27T06:16:55.469Z,2.63
2022-07-27T06:18:59.028Z,2.83
2022-07-27T06:21:04.652Z,2.60
2022-07-27T06:23:09.092Z,2.30
2022-07-27T06:25:12.758Z,2.83
2022-07-27T06:27:16.306Z,2.40
2022-07-27T06:29:19.818Z,2.70
2022-07-27T06:31:23.442Z,3.07
2022-07-27T06:33:29.358Z,2.80
2022-07-27T06:35:33.951Z,2.13
2022-07-27T06:37:44.127Z,2.83
2022-07-27T06:39:47.792Z,2.50
2022-07-27T06:41:56.209Z,2.53
2022-07-27T06:44:01.546Z,2.43
2022-07-27T06:46:07.233Z,2.50
2022-07-27T06:48:11.605Z,2.90
2022-07-27T06:50:15.162Z,2.57
2022-07-27T06:52:18.636Z,3.23
2022-07-27T06:54:23.527Z,2.70
2022-07-27T06:56:27.125Z,2.77
2022-07-27T06:58:30.704Z,2.30
2022-07-27T07:00:34.807Z,2.63
2022-07-27T07:02:38.357Z,2.30
2022-07-27T07:04:41.855Z,2.90
2022-07-27T07:06:45.557Z,3.23
2022-07-27T07:08:49.048Z,3.23
2022-07-27T07:10:53.970Z,3.50
2022-07-27T07:12:57.523Z,3.30
2022-07-27T07:15:01.051Z,2.73
2022-07-27T07:17:05.017Z,2.10
2022-07-27T07:19:09.161Z,2.57
2022-07-27T07:21:12.954Z,3.13
2022-07-27T07:23:16.428Z,3.00
2022-07-27T07:25:20.034Z,2.90
2022-07-27T07:27:25.842Z,3.50
2022-07-27T07:29:29.466Z,3.20
2022-07-27T07:31:33.100Z,2.47
2022-07-27T07:33:36.668Z,3.60
2022-07-27T07:36:13.146Z,3.00
2022-07-27T07:38:03.915Z,2.53
2022-07-27T07:40:41.586Z,2.87
2022-07-27T07:42:47.244Z,3.23
2022-07-27T07:44:50.810Z,3.33
2022-07-27T07:46:54.394Z,2.63
2022-07-27T07:48:57.992Z,4.87
2022-07-27T07:51:01.883Z,3.00
2022-07-27T07:53:05.566Z,3.60
2022-07-27T07:55:09.488Z,3.40
2022-07-27T07:57:13.180Z,4.03
2022-07-27T07:59:18.075Z,4.23
2022-07-27T08:01:22.279Z,4.00
2022-07-27T08:03:25.859Z,3.67
2022-07-27T08:05:29.425Z,3.20
2022-07-27T08:07:33.203Z,4.07
2022-07-27T08:09:36.884Z,3.47
2022-07-27T08:11:41.159Z,2.73
2022-07-27T08:13:45.040Z,4.30
2022-07-27T08:15:49.997Z,3.70
2022-07-27T08:17:53.723Z,4.10
2022-07-27T08:19:57.232Z,4.13
2022-07-27T08:22:00.754Z,4.10
2022-07-27T08:24:04.308Z,4.30
2022-07-27T08:26:08.382Z,3.13
2022-07-27T08:28:12.171Z,3.60
2022-07-27T08:30:16.140Z,3.27
2022-07-27T08:32:22.888Z,3.70
2022-07-27T08:34:26.521Z,3.30
2022-07-27T08:36:30.149Z,4.13
2022-07-27T08:38:34.007Z,3.40
2022-07-27T08:40:41.750Z,3.60
2022-07-27T08:42:47.186Z,3.70
2022-07-27T08:44:53.885Z,3.90
2022-07-27T08:46:58.590Z,3.97
2022-07-27T08:49:04.156Z,3.67
2022-07-27T08:51:07.986Z,3.67
2022-07-27T08:53:12.907Z,3.70
2022-07-27T08:55:16.501Z,3.53
2022-07-27T08:57:21.054Z,4.30
2022-07-27T08:59:26.305Z,4.27
2022-07-27T09:01:29.942Z,4.67
2022-07-27T09:03:33.581Z,3.93
2022-07-27T09:05:44.720Z,4.00
2022-07-27T09:07:48.588Z,3.83
2022-07-27T09:09:52.300Z,3.90
2022-07-27T09:12:06.591Z,4.23
2022-07-27T09:14:12.233Z,4.27
2022-07-27T09:16:19.338Z,3.80
2022-07-27T09:18:24.690Z,4.47
2022-07-27T09:20:28.284Z,4.20
2022-07-27T09:22:46.793Z,4.10
2022-07-27T09:25:03.876Z,3.90
2022-07-27T09:27:07.997Z,5.37
2022-07-27T09:29:13.094Z,4.60
2022-07-27T09:31:17.861Z,4.20
2022-07-27T09:33:21.574Z,4.17
2022-07-27T09:35:27.009Z,4.80
2022-07-27T09:37:30.666Z,3.97
2022-07-27T09:39:35.548Z,4.37
2022-07-27T09:41:43.191Z,4.97
2022-07-27T09:46:11.613Z,4.60
2022-07-27T09:48:16.582Z,3.77
2022-07-27T09:50:21.149Z,4.33
2022-07-27T09:52:25.791Z,4.30
2022-07-27T09:54:29.668Z,4.37
2022-07-27T09:56:35.137Z,4.23
2022-07-27T09:58:42.325Z,4.50
2022-07-27T10:00:57.398Z,3.90
2022-07-27T10:03:01.173Z,4.00
2022-07-27T10:05:04.896Z,4.10
2022-07-27T10:07:13.214Z,4.30
2022-07-27T10:09:17.542Z,3.73
2022-07-27T10:11:21.573Z,4.40
2022-07-27T10:13:26.551Z,3.80
2022-07-27T10:15:30.203Z,4.37
2022-07-27T10:17:35.014Z,3.93
2022-07-27T10:19:41.945Z,3.80
2022-07-27T10:21:46.396Z,4.17
2022-07-27T10:24:00.045Z,5.20
2022-07-27T10:26:20.499Z,3.90
2022-07-27T10:28:24.230Z,4.17
2022-07-27T10:30:29.669Z,4.83
2022-07-27T10:32:33.713Z,5.10
2022-07-27T10:34:38.428Z,4.67
2022-07-27T10:36:46.667Z,4.30
2022-07-27T10:38:51.185Z,4.77
2022-07-27T10:41:09.543Z,4.80
2022-07-27T10:43:19.902Z,4.30
2022-07-27T10:45:24.115Z,4.70
2022-07-27T10:47:37.865Z,5.20
2022-07-27T10:49:41.688Z,3.93
2022-07-27T10:51:45.561Z,4.60
2022-07-27T10:54:11.984Z,4.17
2022-07-27T10:56:15.838Z,4.80
2022-07-27T10:58:37.887Z,5.30
2022-07-27T11:01:00.441Z,4.40
2022-07-27T11:03:07.719Z,4.33
2022-07-27T11:05:53.839Z,5.10
2022-07-27T11:07:44.627Z,4.50
2022-07-27T11:10:03.577Z,4.60
2022-07-27T11:12:08.949Z,4.60
2022-07-27T11:14:12.931Z,4.87
2022-07-27T11:16:25.862Z,4.53
2022-07-27T11:18:31.275Z,4.40
2022-07-27T11:20:35.130Z,4.73
2022-07-27T11:23:26.500Z,4.77
2022-07-27T11:25:04.454Z,4.27
2022-07-27T11:27:16.804Z,5.23
2022-07-27T11:29:22.190Z,5.00
2022-07-27T11:31:52.759Z,5.10
2022-07-27T11:33:58.422Z,4.80
2022-07-27T11:36:02.714Z,4.23
2022-07-27T11:38:07.829Z,4.13
2022-07-27T11:40:53.215Z,4.47
2022-07-27T11:42:39.387Z,4.77
2022-07-27T11:44:44.698Z,4.70
2022-07-27T11:46:50.851Z,4.70
2022-07-27T11:49:11.576Z,4.40
2022-07-27T11:51:18.331Z,5.10
2022-07-27T11:53:22.182Z,4.70
2022-07-27T11:55:26.057Z,5.50
2022-07-27T11:57:33.105Z,5.23
2022-07-27T11:59:37.421Z,4.70
2022-07-27T12:01:42.263Z,4.87
2022-07-27T12:03:47.439Z,4.07
2022-07-27T12:05:51.693Z,4.53
2022-07-27T12:07:56.730Z,5.03
2022-07-27T12:10:02.100Z,5.03
2022-07-27T12:12:11.250Z,5.23
2022-07-27T12:14:14.989Z,4.27
2022-07-27T12:16:20.695Z,4.63
2022-07-27T12:18:24.294Z,4.67
2022-07-27T12:20:33.940Z,5.57
2022-07-27T12:22:38.631Z,5.60
2022-07-27T12:24:45.044Z,4.90
2022-07-27T12:27:06.406Z,4.50
2022-07-27T12:29:11.205Z,4.70
2022-07-27T12:31:18.607Z,4.60
2022-07-27T12:33:29.612Z,4.33
2022-07-27T12:35:37.359Z,4.90
2022-07-27T12:37:43.489Z,4.30
2022-07-27T12:39:48.894Z,3.80
2022-07-27T12:42:03.661Z,4.27
2022-07-27T12:44:08.778Z,4.40
2022-07-27T12:46:13.503Z,4.33
2022-07-27T12:48:18.818Z,4.53
2022-07-27T12:50:29.476Z,4.97
2022-07-27T12:52:33.294Z,4.40
2022-07-27T12:54:36.826Z,4.80
2022-07-27T12:56:41.913Z,4.47
2022-07-27T12:58:59.808Z,5.13
2022-07-27T13:01:03.519Z,4.83
2022-07-27T13:03:07.843Z,4.40
2022-07-27T13:05:12.876Z,5.60
2022-07-27T13:07:17.743Z,6.03
2022-07-27T13:09:21.228Z,5.20
2022-07-27T13:11:24.786Z,5.07
2022-07-27T13:13:30.019Z,5.67
2022-07-27T13:15:33.683Z,5.17
2022-07-27T13:17:38.242Z,5.90
2022-07-27T13:19:41.853Z,5.30
2022-07-27T13:21:45.384Z,5.87
2022-07-27T13:23:49.328Z,5.70
2022-07-27T13:25:55.196Z,5.00
2022-07-27T13:27:58.871Z,4.70
2022-07-27T13:30:03.877Z,4.83
2022-07-27T13:32:08.729Z,6.10
2022-07-27T13:34:12.404Z,4.50
2022-07-27T13:36:15.881Z,5.97
2022-07-27T13:38:19.389Z,5.17
2022-07-27T13:40:25.372Z,5.00
2022-07-27T13:42:29.110Z,4.57
2022-07-27T13:46:58.359Z,5.17
2022-07-27T13:49:02.127Z,4.57
2022-07-27T13:51:05.840Z,5.03
2022-07-27T13:53:09.357Z,4.40
2022-07-27T13:55:20.696Z,4.50
2022-07-27T13:57:25.975Z,5.83
2022-07-27T13:59:29.438Z,4.60
2022-07-27T14:01:33.408Z,4.63
2022-07-27T14:03:39.042Z,4.43
2022-07-27T14:05:43.592Z,4.73
2022-07-27T14:07:52.421Z,4.60
2022-07-27T14:10:13.521Z,4.83
2022-07-27T14:12:17.248Z,5.03
2022-07-27T14:14:24.368Z,5.27
2022-07-27T14:16:30.831Z,5.30
2022-07-27T14:18:34.405Z,4.30
2022-07-27T14:20:39.763Z,4.53
2022-07-27T14:22:43.392Z,4.83
2022-07-27T14:24:47.243Z,4.50
2022-07-27T14:26:50.750Z,5.07
2022-07-27T14:28:54.779Z,3.97
2022-07-27T14:30:58.966Z,4.80
2022-07-27T14:33:02.913Z,4.67
2022-07-27T14:35:07.383Z,5.17
2022-07-27T14:37:12.933Z,5.53
2022-07-27T14:39:16.506Z,5.03
2022-07-27T14:41:20.105Z,4.70
2022-07-27T14:43:23.799Z,5.50
2022-07-27T14:45:45.180Z,4.70
2022-07-27T14:47:50.065Z,4.87
2022-07-27T14:49:53.927Z,4.23
2022-07-27T14:51:58.024Z,5.63
2022-07-27T14:54:02.933Z,4.37
2022-07-27T14:56:06.680Z,4.47
2022-07-27T14:58:10.528Z,4.23
2022-07-27T15:00:14.708Z,4.10
2022-07-27T15:02:18.620Z,5.17
2022-07-27T15:04:22.157Z,4.50
2022-07-27T15:06:25.837Z,5.00
2022-07-27T15:08:29.837Z,5.60
2022-07-27T15:10:34.996Z,5.23
2022-07-27T15:12:39.624Z,5.20
2022-07-27T15:14:43.465Z,4.33
2022-07-27T15:16:47.033Z,4.40
2022-07-27T15:18:51.222Z,4.40
2022-07-27T15:20:54.755Z,4.90
2022-07-27T15:22:58.573Z,5.60
2022-07-27T15:25:02.667Z,4.53
2022-07-27T15:27:07.728Z,5.50
2022-07-27T15:29:14.859Z,5.40
2022-07-27T15:31:19.697Z,4.53
2022-07-27T15:33:23.299Z,5.20
2022-07-27T15:35:27.591Z,5.17
2022-07-27T15:37:31.113Z,4.40
2022-07-27T15:39:34.690Z,5.80
2022-07-27T15:41:39.609Z,5.60
2022-07-27T15:43:44.451Z,5.07
2022-07-27T15:45:49.105Z,5.73
2022-07-27T15:47:53.305Z,6.50
2022-07-27T15:49:56.880Z,6.40
2022-07-27T15:52:01.225Z,5.23
2022-07-27T15:54:04.741Z,6.00
2022-07-27T15:56:08.508Z,7.40
2022-07-27T15:58:13.543Z,6.50
2022-07-27T16:00:19.780Z,6.57
2022-07-27T16:02:26.402Z,6.17
2022-07-27T16:04:30.191Z,6.53
2022-07-27T16:06:38.797Z,6.50
2022-07-27T16:08:43.780Z,6.17
2022-07-27T16:10:48.235Z,5.80
2022-07-27T16:12:52.015Z,5.33
2022-07-27T16:14:55.593Z,5.73
2022-07-27T16:17:00.833Z,6.70
2022-07-27T16:19:12.752Z,6.40
2022-07-27T16:21:17.398Z,7.10
2022-07-27T16:23:22.272Z,7.23
2022-07-27T16:25:45.914Z,8.10
2022-07-27T16:27:49.744Z,9.30
2022-07-27T16:29:53.358Z,9.27
2022-07-27T16:31:59.199Z,8.67
2022-07-27T16:34:04.145Z,9.17
2022-07-27T16:36:08.847Z,8.63
2022-07-27T16:38:12.699Z,8.43
2022-07-27T16:40:16.245Z,8.50
2022-07-27T16:42:20.286Z,8.37
2022-07-27T16:44:23.829Z,8.67
2022-07-27T16:46:28.405Z,7.57
2022-07-27T16:48:38.694Z,8.43
2022-07-27T16:50:48.163Z,6.90
2022-07-27T16:52:52.587Z,7.67
2022-07-27T16:54:56.183Z,7.60
2022-07-27T16:57:00.479Z,7.43
2022-07-27T16:59:04.166Z,7.67
2022-07-27T17:01:09.741Z,8.07
2022-07-27T17:03:25.354Z,7.50
2022-07-27T17:05:29.513Z,7.20
2022-07-27T17:07:34.774Z,7.30
2022-07-27T17:09:38.364Z,6.70
2022-07-27T17:11:42.606Z,6.53
2022-07-27T17:13:49.108Z,7.17
2022-07-27T17:15:53.726Z,7.30
2022-07-27T17:17:57.328Z,7.57
2022-07-27T17:20:00.953Z,8.47
2022-07-27T17:22:04.584Z,7.50
2022-07-27T17:24:10.314Z,6.80
2022-07-27T17:26:14.557Z,6.90
2022-07-27T17:28:19.458Z,7.50
2022-07-27T17:30:23.777Z,6.30
2022-07-27T17:32:27.370Z,7.83
2022-07-27T17:34:31.088Z,7.23
2022-07-27T17:36:34.689Z,7.80
2022-07-27T17:38:38.309Z,6.67
2022-07-27T17:40:43.865Z,8.70
2022-07-27T17:42:47.475Z,8.40
2022-07-27T17:44:51.417Z,7.50
2022-07-27T17:46:55.037Z,8.23
2022-07-27T17:48:58.773Z,8.40
2022-07-27T17:51:02.715Z,10.20
2022-07-27T17:53:06.266Z,9.80
2022-07-27T17:55:12.826Z,10.47
2022-07-27T17:57:17.959Z,9.97
2022-07-27T17:59:38.624Z,9.50
2022-07-27T18:01:47.288Z,9.03
2022-07-27T18:03:52.134Z,9.73
2022-07-27T18:05:55.886Z,7.10
2022-07-27T18:07:59.595Z,7.67
2022-07-27T18:10:03.362Z,6.40
2022-07-27T18:12:07.325Z,9.10
2022-07-27T18:14:12.389Z,7.20
2022-07-27T18:16:16.210Z,7.87
2022-07-27T18:18:21.995Z,7.17
2022-07-27T18:20:25.644Z,8.03
2022-07-27T18:22:29.277Z,8.40
2022-07-27T18:24:35.582Z,7.33
2022-07-27T18:26:39.379Z,7.40
2022-07-27T18:28:43.959Z,7.60
2022-07-27T18:30:52.886Z,5.93
2022-07-27T18:32:56.571Z,9.10
2022-07-27T18:35:01.770Z,9.00
2022-07-27T18:37:05.454Z,8.33
2022-07-27T18:39:09.291Z,8.67
2022-07-27T18:41:13.915Z,8.77
2022-07-27T18:43:17.941Z,8.70
2022-07-27T18:45:21.683Z,8.77
2022-07-27T18:47:29.481Z,8.30
2022-07-27T18:49:33.592Z,6.90
2022-07-27T18:51:37.263Z,8.60
2022-07-27T18:53:41.854Z,7.73
2022-07-27T18:55:45.733Z,7.60
2022-07-27T18:57:49.318Z,7.70
2022-07-27T18:59:53.990Z,9.90
2022-07-27T19:01:58.410Z,8.13
2022-07-27T19:04:03.772Z,8.27
2022-07-27T19:06:07.375Z,9.03
2022-07-27T19:08:14.083Z,8.57
2022-07-27T19:10:17.895Z,8.10
2022-07-27T19:12:21.546Z,8.17
2022-07-27T19:14:25.219Z,8.20
2022-07-27T19:16:28.933Z,8.60
2022-07-27T19:18:32.798Z,8.10
2022-07-27T19:20:37.876Z,8.27
2022-07-27T19:22:45.487Z,9.77
2022-07-27T19:24:54.398Z,8.00
2022-07-27T19:26:58.498Z,8.07
2022-07-27T19:29:02.609Z,8.20
2022-07-27T19:31:06.578Z,7.80
2022-07-27T19:33:26.574Z,7.17
2022-07-27T19:35:30.182Z,7.40
2022-07-27T19:37:35.813Z,7.40
2022-07-27T19:39:57.304Z,7.53
2022-07-27T19:42:03.375Z,7.50
2022-07-27T19:44:08.659Z,7.17
2022-07-27T19:46:12.562Z,7.00
2022-07-27T19:48:16.859Z,9.00
2022-07-27T19:50:20.705Z,7.00
2022-07-27T19:52:24.371Z,7.10
2022-07-27T19:54:29.293Z,6.37
2022-07-27T19:56:37.181Z,7.37
2022-07-27T19:58:41.128Z,8.07
2022-07-27T20:00:46.307Z,7.90
2022-07-27T20:02:50.014Z,8.40
2022-07-27T20:04:54.282Z,7.77
2022-07-27T20:06:58.007Z,8.70
2022-07-27T20:09:02.188Z,7.70
2022-07-27T20:11:07.134Z,8.90
2022-07-27T20:13:10.803Z,8.67
2022-07-27T20:15:15.022Z,8.20
2022-07-27T20:17:18.524Z,9.90
2022-07-27T20:19:22.188Z,9.33
2022-07-27T20:21:25.792Z,8.40
2022-07-27T20:23:29.461Z,8.97
2022-07-27T20:25:33.558Z,7.30
2022-07-27T20:27:38.959Z,7.53
2022-07-27T20:29:42.993Z,6.23
2022-07-27T20:31:46.811Z,6.70
2022-07-27T20:33:50.390Z,6.67
2022-07-27T20:35:54.353Z,7.20
2022-07-27T20:37:57.921Z,7.43
2022-07-27T20:40:01.429Z,6.83
2022-07-27T20:42:05.729Z,6.40
2022-07-27T20:44:10.716Z,7.63
2022-07-27T20:46:15.926Z,6.30
2022-07-27T20:48:19.665Z,7.13
2022-07-27T20:50:23.379Z,7.40
2022-07-27T20:52:26.931Z,6.73
2022-07-27T20:54:30.609Z,6.47
2022-07-27T20:56:34.742Z,6.30
2022-07-27T20:58:38.287Z,5.83
2022-07-27T21:00:43.584Z,7.00
2022-07-27T21:02:48.481Z,6.73
2022-07-27T21:04:54.110Z,6.53
2022-07-27T21:06:57.673Z,6.33
2022-07-27T21:09:01.188Z,6.37
2022-07-27T21:11:06.149Z,6.20
2022-07-27T21:13:09.738Z,6.80
2022-07-27T21:15:13.769Z,5.60
2022-07-27T21:17:18.748Z,5.90
2022-07-27T21:19:23.162Z,6.50
2022-07-27T21:21:27.712Z,5.70
2022-07-27T21:23:48.933Z,6.50
2022-07-27T21:25:53.419Z,7.20
2022-07-27T21:27:57.018Z,5.10
2022-07-27T21:30:01.599Z,6.30
2022-07-27T21:32:05.509Z,6.03
2022-07-27T21:34:11.827Z,6.60
2022-07-27T21:36:15.707Z,7.10
2022-07-27T21:38:19.298Z,5.40
2022-07-27T21:40:23.415Z,6.23
2022-07-27T21:42:26.955Z,6.00
2022-07-27T21:44:30.500Z,6.90
2022-07-27T21:46:34.417Z,7.23
2022-07-27T21:48:38.097Z,6.67
2022-07-27T21:50:43.159Z,6.20
2022-07-27T21:52:46.688Z,6.50
2022-07-27T21:54:50.180Z,6.77
2022-07-27T21:56:53.805Z,7.70
2022-07-27T21:58:57.470Z,7.10
2022-07-27T22:01:01.044Z,6.83
2022-07-27T22:03:04.933Z,6.33
2022-07-27T22:05:08.751Z,6.00
2022-07-27T22:07:19.119Z,6.70
2022-07-27T22:09:23.082Z,6.37
2022-07-27T22:11:26.627Z,6.93
2022-07-27T22:13:30.240Z,6.77
2022-07-27T22:15:34.061Z,6.07
2022-07-27T22:17:50.340Z,6.70
2022-07-27T22:19:54.617Z,6.47
2022-07-27T22:21:58.133Z,6.00
2022-07-27T22:24:03.357Z,7.30
2022-07-27T22:26:06.913Z,7.53
2022-07-27T22:28:10.464Z,7.17
2022-07-27T22:30:15.331Z,8.63
2022-07-27T22:32:20.435Z,8.00
2022-07-27T22:34:26.683Z,9.20
2022-07-27T22:36:30.168Z,8.93
2022-07-27T22:38:34.141Z,8.13
2022-07-27T22:40:39.100Z,9.23
2022-07-27T22:42:43.967Z,7.73
2022-07-27T22:44:48.051Z,8.43
2022-07-27T22:46:51.589Z,7.83
2022-07-27T22:48:55.203Z,9.03
2022-07-27T22:50:59.010Z,8.07
2022-07-27T22:53:03.115Z,7.30
2022-07-27T22:55:09.606Z,8.20
2022-07-27T22:57:14.960Z,8.00
2022-07-27T22:59:18.501Z,7.37
2022-07-27T23:01:45.383Z,9.33
2022-07-27T23:03:46.018Z,8.90
2022-07-27T23:05:49.646Z,10.53
2022-07-27T23:07:53.452Z,9.43
2022-07-27T23:09:57.244Z,9.63
2022-07-27T23:12:00.796Z,9.00
2022-07-27T23:14:07.439Z,9.90
2022-07-27T23:16:11.017Z,9.43
2022-07-27T23:18:15.213Z,9.20
2022-07-27T23:20:18.841Z,12.47
2022-07-27T23:22:22.643Z,9.93
2022-07-27T23:24:29.373Z,10.10
2022-07-27T23:26:33.261Z,10.57
2022-07-27T23:28:37.057Z,10.77
2022-07-27T23:30:41.989Z,11.23
2022-07-27T23:32:45.740Z,10.43
2022-07-27T23:34:49.217Z,10.10
2022-07-27T23:36:52.903Z,10.70
2022-07-27T23:38:56.584Z,10.67
2022-07-27T23:41:00.357Z,10.10
2022-07-27T23:43:04.239Z,11.67
2022-07-27T23:45:09.018Z,10.30
2022-07-27T23:47:14.427Z,14.47
2022-07-27T23:49:17.998Z,12.00
2022-07-27T23:51:22.136Z,11.27
2022-07-27T23:53:27.214Z,11.30
2022-07-27T23:55:30.717Z,12.60
2022-07-27T23:57:34.444Z,12.60
2022-07-27T23:59:38.005Z,13.83
